sensor_id;sensor_type;location;lat;lon;timestamp;temperature;humidity
52273;DHT22;38227;50.942;4.016;2023-03-05T00:01:38;7.60;99.90
52273;DHT22;38227;50.942;4.016;2023-03-05T00:04:13;7.70;99.90
52273;DHT22;38227;50.942;4.016;2023-03-05T00:07:00;7.70;99.90
52273;DHT22;38227;50.942;4.016;2023-03-05T00:09:28;7.90;99.90
52273;DHT22;38227;50.942;4.016;2023-03-05T00:12:00;7.90;99.90
52273;DHT22;38227;50.942;4.016;2023-03-05T00:14:37;7.70;99.90
52273;DHT22;38227;50.942;4.016;2023-03-05T00:17:09;7.90;99.90
52273;DHT22;38227;50.942;4.016;2023-03-05T00:19:39;8.00;99.90
52273;DHT22;38227;50.942;4.016;2023-03-05T00:22:10;8.00;99.90
52273;DHT22;38227;50.942;4.016;2023-03-05T00:24:38;7.80;99.90
52273;DHT22;38227;50.942;4.016;2023-03-05T00:27:17;7.70;99.90
52273;DHT22;38227;50.942;4.016;2023-03-05T00:29:46;7.80;99.90
52273;DHT22;38227;50.942;4.016;2023-03-05T00:32:14;7.70;99.90
52273;DHT22;38227;50.942;4.016;2023-03-05T00:34:52;7.70;99.90
52273;DHT22;38227;50.942;4.016;2023-03-05T00:37:21;7.70;99.90
52273;DHT22;38227;50.942;4.016;2023-03-05T00:39:53;7.60;99.90
52273;DHT22;38227;50.942;4.016;2023-03-05T00:42:21;7.60;99.90
52273;DHT22;38227;50.942;4.016;2023-03-05T00:45:00;7.70;99.90
52273;DHT22;38227;50.942;4.016;2023-03-05T00:47:31;7.70;99.90
52273;DHT22;38227;50.942;4.016;2023-03-05T00:50:04;7.50;99.90
52273;DHT22;38227;50.942;4.016;2023-03-05T00:52:33;7.50;99.90
52273;DHT22;38227;50.942;4.016;2023-03-05T00:55:06;7.50;99.90
52273;DHT22;38227;50.942;4.016;2023-03-05T00:57:35;7.50;99.90
52273;DHT22;38227;50.942;4.016;2023-03-05T01:00:06;7.40;99.90
52273;DHT22;38227;50.942;4.016;2023-03-05T01:02:40;7.40;99.90
52273;DHT22;38227;50.942;4.016;2023-03-05T01:05:10;7.30;99.90
52273;DHT22;38227;50.942;4.016;2023-03-05T01:07:39;7.40;99.90
52273;DHT22;38227;50.942;4.016;2023-03-05T01:10:10;7.40;99.90
52273;DHT22;38227;50.942;4.016;2023-03-05T01:12:39;7.40;99.90
52273;DHT22;38227;50.942;4.016;2023-03-05T01:15:08;7.40;99.90
52273;DHT22;38227;50.942;4.016;2023-03-05T01:17:40;7.30;99.90
52273;DHT22;38227;50.942;4.016;2023-03-05T01:20:11;7.30;99.90
52273;DHT22;38227;50.942;4.016;2023-03-05T01:22:43;7.30;99.90
52273;DHT22;38227;50.942;4.016;2023-03-05T01:25:13;7.20;99.90
52273;DHT22;38227;50.942;4.016;2023-03-05T01:27:43;7.20;99.90
52273;DHT22;38227;50.942;4.016;2023-03-05T01:30:13;7.20;99.90
52273;DHT22;38227;50.942;4.016;2023-03-05T01:32:41;7.20;99.90
52273;DHT22;38227;50.942;4.016;2023-03-05T01:35:16;7.30;99.90
52273;DHT22;38227;50.942;4.016;2023-03-05T01:37:45;7.30;99.90
52273;DHT22;38227;50.942;4.016;2023-03-05T01:40:16;7.30;99.90
52273;DHT22;38227;50.942;4.016;2023-03-05T01:42:53;7.30;99.90
52273;DHT22;38227;50.942;4.016;2023-03-05T01:45:29;7.00;99.90
52273;DHT22;38227;50.942;4.016;2023-03-05T01:47:57;6.80;99.90
52273;DHT22;38227;50.942;4.016;2023-03-05T01:50:29;6.80;99.90
52273;DHT22;38227;50.942;4.016;2023-03-05T01:53:02;6.70;99.90
52273;DHT22;38227;50.942;4.016;2023-03-05T01:55:35;6.50;99.90
52273;DHT22;38227;50.942;4.016;2023-03-05T01:58:22;6.50;99.90
52273;DHT22;38227;50.942;4.016;2023-03-05T02:00:54;6.40;99.90
52273;DHT22;38227;50.942;4.016;2023-03-05T02:03:25;6.20;99.90
52273;DHT22;38227;50.942;4.016;2023-03-05T02:05:57;6.20;99.90
52273;DHT22;38227;50.942;4.016;2023-03-05T02:08:25;6.20;99.90
52273;DHT22;38227;50.942;4.016;2023-03-05T02:10:54;6.20;99.90
52273;DHT22;38227;50.942;4.016;2023-03-05T02:13:28;6.20;99.90
52273;DHT22;38227;50.942;4.016;2023-03-05T02:16:00;6.10;99.90
52273;DHT22;38227;50.942;4.016;2023-03-05T02:18:31;6.20;99.90
52273;DHT22;38227;50.942;4.016;2023-03-05T02:21:07;6.30;99.90
52273;DHT22;38227;50.942;4.016;2023-03-05T02:23:37;6.40;99.90
52273;DHT22;38227;50.942;4.016;2023-03-05T02:26:08;6.40;99.90
52273;DHT22;38227;50.942;4.016;2023-03-05T02:28:44;6.40;99.90
52273;DHT22;38227;50.942;4.016;2023-03-05T02:31:16;6.30;99.90
52273;DHT22;38227;50.942;4.016;2023-03-05T02:33:46;6.30;99.90
52273;DHT22;38227;50.942;4.016;2023-03-05T02:36:14;6.30;99.90
52273;DHT22;38227;50.942;4.016;2023-03-05T02:38:45;6.40;99.90
52273;DHT22;38227;50.942;4.016;2023-03-05T02:41:15;6.40;99.90
52273;DHT22;38227;50.942;4.016;2023-03-05T02:43:48;6.50;99.90
52273;DHT22;38227;50.942;4.016;2023-03-05T02:46:17;6.50;99.90
52273;DHT22;38227;50.942;4.016;2023-03-05T02:49:04;6.60;99.90
52273;DHT22;38227;50.942;4.016;2023-03-05T02:51:44;6.50;99.90
52273;DHT22;38227;50.942;4.016;2023-03-05T02:54:22;6.40;99.90
52273;DHT22;38227;50.942;4.016;2023-03-05T02:56:50;6.30;99.90
52273;DHT22;38227;50.942;4.016;2023-03-05T02:59:18;6.10;99.90
52273;DHT22;38227;50.942;4.016;2023-03-05T03:01:50;6.10;99.90
52273;DHT22;38227;50.942;4.016;2023-03-05T03:04:22;6.10;99.90
52273;DHT22;38227;50.942;4.016;2023-03-05T03:06:50;6.00;99.90
52273;DHT22;38227;50.942;4.016;2023-03-05T03:09:20;6.20;99.90
52273;DHT22;38227;50.942;4.016;2023-03-05T03:11:48;6.10;99.90
52273;DHT22;38227;50.942;4.016;2023-03-05T03:14:20;6.20;99.90
52273;DHT22;38227;50.942;4.016;2023-03-05T03:16:52;6.30;99.90
52273;DHT22;38227;50.942;4.016;2023-03-05T03:19:20;6.30;99.90
52273;DHT22;38227;50.942;4.016;2023-03-05T03:21:52;6.30;99.90
52273;DHT22;38227;50.942;4.016;2023-03-05T03:24:20;6.40;99.90
52273;DHT22;38227;50.942;4.016;2023-03-05T03:26:58;6.40;99.90
52273;DHT22;38227;50.942;4.016;2023-03-05T03:29:26;6.40;99.90
52273;DHT22;38227;50.942;4.016;2023-03-05T03:31:57;6.40;99.90
52273;DHT22;38227;50.942;4.016;2023-03-05T03:34:25;6.40;99.90
52273;DHT22;38227;50.942;4.016;2023-03-05T03:36:57;6.40;99.90
52273;DHT22;38227;50.942;4.016;2023-03-05T03:39:35;6.50;99.90
52273;DHT22;38227;50.942;4.016;2023-03-05T03:42:05;6.60;99.90
52273;DHT22;38227;50.942;4.016;2023-03-05T03:44:33;6.60;99.90
52273;DHT22;38227;50.942;4.016;2023-03-05T03:47:02;6.70;99.90
52273;DHT22;38227;50.942;4.016;2023-03-05T03:49:32;6.80;99.90
52273;DHT22;38227;50.942;4.016;2023-03-05T03:52:04;6.80;99.90
52273;DHT22;38227;50.942;4.016;2023-03-05T03:54:35;6.70;99.90
52273;DHT22;38227;50.942;4.016;2023-03-05T03:57:03;6.60;99.90
52273;DHT22;38227;50.942;4.016;2023-03-05T03:59:31;6.80;99.90
52273;DHT22;38227;50.942;4.016;2023-03-05T04:02:04;6.80;99.90
52273;DHT22;38227;50.942;4.016;2023-03-05T04:04:32;6.70;99.90
52273;DHT22;38227;50.942;4.016;2023-03-05T04:06:59;6.80;99.90
52273;DHT22;38227;50.942;4.016;2023-03-05T04:09:27;6.80;99.90
52273;DHT22;38227;50.942;4.016;2023-03-05T04:11:59;6.70;99.90
52273;DHT22;38227;50.942;4.016;2023-03-05T04:14:27;6.70;99.90
52273;DHT22;38227;50.942;4.016;2023-03-05T04:16:59;6.70;99.90
52273;DHT22;38227;50.942;4.016;2023-03-05T04:19:27;6.50;99.90
52273;DHT22;38227;50.942;4.016;2023-03-05T04:21:57;6.60;99.90
52273;DHT22;38227;50.942;4.016;2023-03-05T04:24:26;6.60;99.90
52273;DHT22;38227;50.942;4.016;2023-03-05T04:26:57;6.70;99.90
52273;DHT22;38227;50.942;4.016;2023-03-05T04:29:30;6.60;99.90
52273;DHT22;38227;50.942;4.016;2023-03-05T04:31:58;6.50;99.90
52273;DHT22;38227;50.942;4.016;2023-03-05T04:34:30;6.40;99.90
52273;DHT22;38227;50.942;4.016;2023-03-05T04:36:58;6.30;99.90
52273;DHT22;38227;50.942;4.016;2023-03-05T04:39:36;6.30;99.90
52273;DHT22;38227;50.942;4.016;2023-03-05T04:42:04;6.40;99.90
52273;DHT22;38227;50.942;4.016;2023-03-05T04:44:35;6.40;99.90
52273;DHT22;38227;50.942;4.016;2023-03-05T04:47:03;6.50;99.90
52273;DHT22;38227;50.942;4.016;2023-03-05T04:49:35;6.40;99.90
52273;DHT22;38227;50.942;4.016;2023-03-05T04:52:03;6.60;99.90
52273;DHT22;38227;50.942;4.016;2023-03-05T04:54:32;6.70;99.90
52273;DHT22;38227;50.942;4.016;2023-03-05T04:57:03;6.70;99.90
52273;DHT22;38227;50.942;4.016;2023-03-05T04:59:31;6.70;99.90
52273;DHT22;38227;50.942;4.016;2023-03-05T05:02:03;6.50;99.90
52273;DHT22;38227;50.942;4.016;2023-03-05T05:04:34;6.40;99.90
52273;DHT22;38227;50.942;4.016;2023-03-05T05:07:05;6.40;99.90
52273;DHT22;38227;50.942;4.016;2023-03-05T05:09:36;6.50;99.90
52273;DHT22;38227;50.942;4.016;2023-03-05T05:12:09;6.40;99.90
52273;DHT22;38227;50.942;4.016;2023-03-05T05:14:47;6.30;99.90
52273;DHT22;38227;50.942;4.016;2023-03-05T05:17:26;6.40;99.90
52273;DHT22;38227;50.942;4.016;2023-03-05T05:19:56;6.40;99.90
52273;DHT22;38227;50.942;4.016;2023-03-05T05:22:28;6.50;99.90
52273;DHT22;38227;50.942;4.016;2023-03-05T05:24:56;6.50;99.90
52273;DHT22;38227;50.942;4.016;2023-03-05T05:27:28;6.50;99.90
52273;DHT22;38227;50.942;4.016;2023-03-05T05:29:56;6.50;99.90
52273;DHT22;38227;50.942;4.016;2023-03-05T05:32:24;6.60;99.90
52273;DHT22;38227;50.942;4.016;2023-03-05T05:34:56;6.60;99.90
52273;DHT22;38227;50.942;4.016;2023-03-05T05:37:25;6.60;99.90
52273;DHT22;38227;50.942;4.016;2023-03-05T05:39:57;6.60;99.90
52273;DHT22;38227;50.942;4.016;2023-03-05T05:42:25;6.60;99.90
52273;DHT22;38227;50.942;4.016;2023-03-05T05:44:54;6.60;99.90
52273;DHT22;38227;50.942;4.016;2023-03-05T05:47:31;6.60;99.90
52273;DHT22;38227;50.942;4.016;2023-03-05T05:50:00;6.50;99.90
52273;DHT22;38227;50.942;4.016;2023-03-05T05:52:31;6.60;99.90
52273;DHT22;38227;50.942;4.016;2023-03-05T05:54:59;6.50;99.90
52273;DHT22;38227;50.942;4.016;2023-03-05T05:57:31;6.50;99.90
52273;DHT22;38227;50.942;4.016;2023-03-05T06:00:01;6.50;99.90
52273;DHT22;38227;50.942;4.016;2023-03-05T06:02:39;6.40;99.90
52273;DHT22;38227;50.942;4.016;2023-03-05T06:05:10;6.40;99.90
52273;DHT22;38227;50.942;4.016;2023-03-05T06:07:48;6.40;99.90
52273;DHT22;38227;50.942;4.016;2023-03-05T06:10:16;6.50;99.90
52273;DHT22;38227;50.942;4.016;2023-03-05T06:12:48;6.40;99.90
52273;DHT22;38227;50.942;4.016;2023-03-05T06:15:17;6.50;99.90
52273;DHT22;38227;50.942;4.016;2023-03-05T06:17:49;6.60;99.90
52273;DHT22;38227;50.942;4.016;2023-03-05T06:20:19;6.60;99.90
52273;DHT22;38227;50.942;4.016;2023-03-05T06:22:51;6.50;99.90
52273;DHT22;38227;50.942;4.016;2023-03-05T06:25:23;6.50;99.90
52273;DHT22;38227;50.942;4.016;2023-03-05T06:27:52;6.50;99.90
52273;DHT22;38227;50.942;4.016;2023-03-05T06:30:29;6.60;99.90
52273;DHT22;38227;50.942;4.016;2023-03-05T06:32:57;6.80;99.90
52273;DHT22;38227;50.942;4.016;2023-03-05T06:35:25;6.70;99.90
52273;DHT22;38227;50.942;4.016;2023-03-05T06:37:57;6.60;99.90
52273;DHT22;38227;50.942;4.016;2023-03-05T06:40:25;6.40;99.90
52273;DHT22;38227;50.942;4.016;2023-03-05T06:42:58;6.30;99.90
52273;DHT22;38227;50.942;4.016;2023-03-05T06:45:27;6.40;99.90
52273;DHT22;38227;50.942;4.016;2023-03-05T06:48:07;6.50;99.90
52273;DHT22;38227;50.942;4.016;2023-03-05T06:50:38;6.50;99.90
52273;DHT22;38227;50.942;4.016;2023-03-05T06:53:14;6.60;99.90
52273;DHT22;38227;50.942;4.016;2023-03-05T06:55:42;6.60;99.90
52273;DHT22;38227;50.942;4.016;2023-03-05T06:58:14;6.50;99.90
52273;DHT22;38227;50.942;4.016;2023-03-05T07:00:43;6.50;99.90
52273;DHT22;38227;50.942;4.016;2023-03-05T07:03:10;6.50;99.90
52273;DHT22;38227;50.942;4.016;2023-03-05T07:05:41;6.70;99.90
52273;DHT22;38227;50.942;4.016;2023-03-05T07:08:09;6.50;99.90
52273;DHT22;38227;50.942;4.016;2023-03-05T07:10:42;6.60;99.90
52273;DHT22;38227;50.942;4.016;2023-03-05T07:13:15;6.40;99.90
52273;DHT22;38227;50.942;4.016;2023-03-05T07:15:44;6.60;99.90
52273;DHT22;38227;50.942;4.016;2023-03-05T07:18:21;6.60;99.90
52273;DHT22;38227;50.942;4.016;2023-03-05T07:20:53;6.60;99.90
52273;DHT22;38227;50.942;4.016;2023-03-05T07:23:26;6.60;99.90
52273;DHT22;38227;50.942;4.016;2023-03-05T07:25:54;6.60;99.90
52273;DHT22;38227;50.942;4.016;2023-03-05T07:28:23;6.50;99.90
52273;DHT22;38227;50.942;4.016;2023-03-05T07:31:02;6.70;99.90
52273;DHT22;38227;50.942;4.016;2023-03-05T07:33:30;6.90;99.90
52273;DHT22;38227;50.942;4.016;2023-03-05T07:36:03;6.90;99.90
52273;DHT22;38227;50.942;4.016;2023-03-05T07:38:30;6.90;99.90
52273;DHT22;38227;50.942;4.016;2023-03-05T07:41:07;6.90;99.90
52273;DHT22;38227;50.942;4.016;2023-03-05T07:43:34;6.90;99.90
52273;DHT22;38227;50.942;4.016;2023-03-05T07:46:06;6.80;99.90
52273;DHT22;38227;50.942;4.016;2023-03-05T07:48:35;7.10;99.90
52273;DHT22;38227;50.942;4.016;2023-03-05T07:51:07;7.30;99.90
52273;DHT22;38227;50.942;4.016;2023-03-05T07:53:34;7.40;99.90
52273;DHT22;38227;50.942;4.016;2023-03-05T07:56:06;7.30;99.90
52273;DHT22;38227;50.942;4.016;2023-03-05T07:58:35;7.30;99.90
52273;DHT22;38227;50.942;4.016;2023-03-05T08:01:09;7.20;99.90
52273;DHT22;38227;50.942;4.016;2023-03-05T08:03:39;7.20;99.90
52273;DHT22;38227;50.942;4.016;2023-03-05T08:06:10;7.20;99.90
52273;DHT22;38227;50.942;4.016;2023-03-05T08:08:42;7.30;99.90
52273;DHT22;38227;50.942;4.016;2023-03-05T08:11:14;7.40;99.90
52273;DHT22;38227;50.942;4.016;2023-03-05T08:13:44;7.60;99.90
52273;DHT22;38227;50.942;4.016;2023-03-05T08:16:18;7.80;99.90
52273;DHT22;38227;50.942;4.016;2023-03-05T08:18:48;7.80;99.90
52273;DHT22;38227;50.942;4.016;2023-03-05T08:21:21;7.60;99.90
52273;DHT22;38227;50.942;4.016;2023-03-05T08:23:51;7.70;99.90
52273;DHT22;38227;50.942;4.016;2023-03-05T08:26:22;7.70;99.90
52273;DHT22;38227;50.942;4.016;2023-03-05T08:28:52;7.70;99.90
52273;DHT22;38227;50.942;4.016;2023-03-05T08:31:24;7.80;99.90
52273;DHT22;38227;50.942;4.016;2023-03-05T08:33:54;7.70;99.90
52273;DHT22;38227;50.942;4.016;2023-03-05T08:36:26;7.90;99.90
52273;DHT22;38227;50.942;4.016;2023-03-05T08:38:54;8.10;99.90
52273;DHT22;38227;50.942;4.016;2023-03-05T08:41:31;8.10;99.90
52273;DHT22;38227;50.942;4.016;2023-03-05T08:43:59;8.20;99.90
52273;DHT22;38227;50.942;4.016;2023-03-05T08:46:32;8.20;99.90
52273;DHT22;38227;50.942;4.016;2023-03-05T08:49:00;8.00;99.90
52273;DHT22;38227;50.942;4.016;2023-03-05T08:51:31;7.90;99.90
52273;DHT22;38227;50.942;4.016;2023-03-05T08:54:00;7.90;99.90
52273;DHT22;38227;50.942;4.016;2023-03-05T08:56:33;7.90;99.90
52273;DHT22;38227;50.942;4.016;2023-03-05T08:59:03;7.90;99.90
52273;DHT22;38227;50.942;4.016;2023-03-05T09:01:32;7.90;99.90
52273;DHT22;38227;50.942;4.016;2023-03-05T09:04:04;7.70;99.90
52273;DHT22;38227;50.942;4.016;2023-03-05T09:06:37;7.30;99.90
52273;DHT22;38227;50.942;4.016;2023-03-05T09:09:09;7.20;99.90
52273;DHT22;38227;50.942;4.016;2023-03-05T09:11:39;7.20;99.90
52273;DHT22;38227;50.942;4.016;2023-03-05T09:14:09;7.20;99.90
52273;DHT22;38227;50.942;4.016;2023-03-05T09:16:37;7.30;99.90
52273;DHT22;38227;50.942;4.016;2023-03-05T09:19:07;7.30;99.90
52273;DHT22;38227;50.942;4.016;2023-03-05T09:21:37;7.30;99.90
52273;DHT22;38227;50.942;4.016;2023-03-05T09:24:07;7.30;99.90
52273;DHT22;38227;50.942;4.016;2023-03-05T09:26:46;7.30;99.90
52273;DHT22;38227;50.942;4.016;2023-03-05T09:29:18;7.40;99.90
52273;DHT22;38227;50.942;4.016;2023-03-05T09:31:49;7.30;99.90
52273;DHT22;38227;50.942;4.016;2023-03-05T09:34:18;7.20;99.90
52273;DHT22;38227;50.942;4.016;2023-03-05T09:36:47;7.40;99.90
52273;DHT22;38227;50.942;4.016;2023-03-05T09:39:25;7.30;99.90
52273;DHT22;38227;50.942;4.016;2023-03-05T09:48:39;7.10;99.90
52273;DHT22;38227;50.942;4.016;2023-03-05T09:51:12;7.20;99.90
52273;DHT22;38227;50.942;4.016;2023-03-05T09:56:47;7.30;99.90
52273;DHT22;38227;50.942;4.016;2023-03-05T09:59:56;7.30;99.90
52273;DHT22;38227;50.942;4.016;2023-03-05T10:02:29;7.50;99.90
52273;DHT22;38227;50.942;4.016;2023-03-05T10:05:17;7.60;99.90
52273;DHT22;38227;50.942;4.016;2023-03-05T10:08:00;7.60;99.90
52273;DHT22;38227;50.942;4.016;2023-03-05T10:10:40;7.80;99.90
52273;DHT22;38227;50.942;4.016;2023-03-05T10:13:38;8.00;99.90
52273;DHT22;38227;50.942;4.016;2023-03-05T10:17:09;8.10;99.90
52273;DHT22;38227;50.942;4.016;2023-03-05T10:26:06;8.50;99.90
52273;DHT22;38227;50.942;4.016;2023-03-05T10:35:20;9.20;99.90
52273;DHT22;38227;50.942;4.016;2023-03-05T10:38:24;9.40;99.90
52273;DHT22;38227;50.942;4.016;2023-03-05T10:41:00;9.40;99.90
52273;DHT22;38227;50.942;4.016;2023-03-05T10:43:42;9.40;99.90
52273;DHT22;38227;50.942;4.016;2023-03-05T10:46:18;9.40;99.90
52273;DHT22;38227;50.942;4.016;2023-03-05T10:49:01;9.40;99.90
52273;DHT22;38227;50.942;4.016;2023-03-05T10:52:02;9.40;99.90
52273;DHT22;38227;50.942;4.016;2023-03-05T10:54:35;9.70;99.90
52273;DHT22;38227;50.942;4.016;2023-03-05T10:57:33;9.80;99.90
52273;DHT22;38227;50.942;4.016;2023-03-05T11:00:17;10.10;99.90
52273;DHT22;38227;50.942;4.016;2023-03-05T11:03:14;10.20;99.90
52273;DHT22;38227;50.942;4.016;2023-03-05T11:05:47;10.40;99.90
52273;DHT22;38227;50.942;4.016;2023-03-05T11:08:39;10.40;99.90
52273;DHT22;38227;50.942;4.016;2023-03-05T11:11:18;10.00;99.90
52273;DHT22;38227;50.942;4.016;2023-03-05T11:16:48;10.10;99.90
52273;DHT22;38227;50.942;4.016;2023-03-05T11:19:39;9.90;99.90
52273;DHT22;38227;50.942;4.016;2023-03-05T11:22:23;9.90;99.90
52273;DHT22;38227;50.942;4.016;2023-03-05T11:25:22;10.10;99.90
52273;DHT22;38227;50.942;4.016;2023-03-05T11:27:54;10.10;99.90
52273;DHT22;38227;50.942;4.016;2023-03-05T11:30:34;10.10;99.90
52273;DHT22;38227;50.942;4.016;2023-03-05T11:33:28;9.70;99.90
52273;DHT22;38227;50.942;4.016;2023-03-05T11:36:35;9.70;99.90
52273;DHT22;38227;50.942;4.016;2023-03-05T11:42:14;8.60;99.90
52273;DHT22;38227;50.942;4.016;2023-03-05T11:44:53;8.20;99.90
52273;DHT22;38227;50.942;4.016;2023-03-05T11:47:45;7.80;99.90
52273;DHT22;38227;50.942;4.016;2023-03-05T11:50:30;7.60;99.90
52273;DHT22;38227;50.942;4.016;2023-03-05T11:53:28;7.70;99.90
52273;DHT22;38227;50.942;4.016;2023-03-05T11:59:04;7.70;99.90
52273;DHT22;38227;50.942;4.016;2023-03-05T12:01:56;8.00;99.90
52273;DHT22;38227;50.942;4.016;2023-03-05T12:04:26;8.00;99.90
52273;DHT22;38227;50.942;4.016;2023-03-05T12:07:00;8.20;99.90
52273;DHT22;38227;50.942;4.016;2023-03-05T12:09:50;8.40;99.90
52273;DHT22;38227;50.942;4.016;2023-03-05T12:12:36;8.20;99.90
52273;DHT22;38227;50.942;4.016;2023-03-05T12:18:46;7.60;99.90
52273;DHT22;38227;50.942;4.016;2023-03-05T12:21:47;7.70;99.90
52273;DHT22;38227;50.942;4.016;2023-03-05T12:24:44;7.70;99.90
52273;DHT22;38227;50.942;4.016;2023-03-05T12:27:12;7.70;99.90
52273;DHT22;38227;50.942;4.016;2023-03-05T12:30:03;7.60;99.90
52273;DHT22;38227;50.942;4.016;2023-03-05T12:32:51;7.50;99.90
52273;DHT22;38227;50.942;4.016;2023-03-05T12:35:30;7.40;99.90
52273;DHT22;38227;50.942;4.016;2023-03-05T12:38:05;7.20;99.90
52273;DHT22;38227;50.942;4.016;2023-03-05T12:40:40;7.10;99.90
52273;DHT22;38227;50.942;4.016;2023-03-05T12:43:27;6.90;99.90
52273;DHT22;38227;50.942;4.016;2023-03-05T12:46:25;7.00;99.90
52273;DHT22;38227;50.942;4.016;2023-03-05T12:48:54;6.90;99.90
52273;DHT22;38227;50.942;4.016;2023-03-05T12:51:33;6.60;99.90
52273;DHT22;38227;50.942;4.016;2023-03-05T12:54:29;6.60;99.90
52273;DHT22;38227;50.942;4.016;2023-03-05T12:57:16;6.50;99.90
52273;DHT22;38227;50.942;4.016;2023-03-05T13:00:17;6.40;99.90
52273;DHT22;38227;50.942;4.016;2023-03-05T13:02:53;6.30;99.90
52273;DHT22;38227;50.942;4.016;2023-03-05T13:05:36;6.20;99.90
52273;DHT22;38227;50.942;4.016;2023-03-05T13:08:21;6.10;99.90
52273;DHT22;38227;50.942;4.016;2023-03-05T13:10:53;6.20;99.90
52273;DHT22;38227;50.942;4.016;2023-03-05T13:13:23;6.20;99.90
52273;DHT22;38227;50.942;4.016;2023-03-05T13:15:52;6.30;99.90
52273;DHT22;38227;50.942;4.016;2023-03-05T13:18:27;6.30;99.90
52273;DHT22;38227;50.942;4.016;2023-03-05T13:21:01;6.40;99.90
52273;DHT22;38227;50.942;4.016;2023-03-05T13:23:30;6.50;99.90
52273;DHT22;38227;50.942;4.016;2023-03-05T13:26:36;6.50;99.90
52273;DHT22;38227;50.942;4.016;2023-03-05T13:29:23;6.50;99.90
52273;DHT22;38227;50.942;4.016;2023-03-05T13:32:01;6.70;99.90
52273;DHT22;38227;50.942;4.016;2023-03-05T13:34:36;6.90;99.90
52273;DHT22;38227;50.942;4.016;2023-03-05T13:37:33;7.10;99.90
52273;DHT22;38227;50.942;4.016;2023-03-05T13:40:22;7.10;99.90
52273;DHT22;38227;50.942;4.016;2023-03-05T13:42:51;7.10;99.90
52273;DHT22;38227;50.942;4.016;2023-03-05T13:45:27;7.10;99.90
52273;DHT22;38227;50.942;4.016;2023-03-05T13:47:57;7.00;99.90
52273;DHT22;38227;50.942;4.016;2023-03-05T13:50:31;7.30;99.90
52273;DHT22;38227;50.942;4.016;2023-03-05T13:56:12;7.50;99.90
52273;DHT22;38227;50.942;4.016;2023-03-05T13:59:02;7.30;99.90
52273;DHT22;38227;50.942;4.016;2023-03-05T14:01:43;7.40;99.90
52273;DHT22;38227;50.942;4.016;2023-03-05T14:04:35;7.60;99.90
52273;DHT22;38227;50.942;4.016;2023-03-05T14:10:43;7.70;99.90
52273;DHT22;38227;50.942;4.016;2023-03-05T14:13:16;8.00;99.90
52273;DHT22;38227;50.942;4.016;2023-03-05T14:18:58;8.10;99.90
52273;DHT22;38227;50.942;4.016;2023-03-05T14:21:48;8.20;99.90
52273;DHT22;38227;50.942;4.016;2023-03-05T14:24:24;8.50;99.90
52273;DHT22;38227;50.942;4.016;2023-03-05T14:27:00;8.40;99.90
52273;DHT22;38227;50.942;4.016;2023-03-05T14:29:30;8.30;99.90
52273;DHT22;38227;50.942;4.016;2023-03-05T14:32:15;8.40;99.90
52273;DHT22;38227;50.942;4.016;2023-03-05T14:34:51;8.40;99.90
52273;DHT22;38227;50.942;4.016;2023-03-05T14:43:10;8.40;99.90
52273;DHT22;38227;50.942;4.016;2023-03-05T14:45:39;8.60;99.90
52273;DHT22;38227;50.942;4.016;2023-03-05T14:48:13;8.60;99.90
52273;DHT22;38227;50.942;4.016;2023-03-05T14:50:43;8.70;99.90
52273;DHT22;38227;50.942;4.016;2023-03-05T14:53:35;8.90;99.90
52273;DHT22;38227;50.942;4.016;2023-03-05T14:56:19;9.00;99.90
52273;DHT22;38227;50.942;4.016;2023-03-05T14:58:52;9.00;99.90
52273;DHT22;38227;50.942;4.016;2023-03-05T15:01:23;9.10;99.90
52273;DHT22;38227;50.942;4.016;2023-03-05T15:03:51;9.00;99.90
52273;DHT22;38227;50.942;4.016;2023-03-05T15:06:30;9.10;99.90
52273;DHT22;38227;50.942;4.016;2023-03-05T15:09:01;9.00;99.90
52273;DHT22;38227;50.942;4.016;2023-03-05T15:11:35;8.90;99.90
52273;DHT22;38227;50.942;4.016;2023-03-05T15:14:03;8.90;99.90
52273;DHT22;38227;50.942;4.016;2023-03-05T15:16:35;8.90;99.90
52273;DHT22;38227;50.942;4.016;2023-03-05T15:19:03;8.90;99.90
52273;DHT22;38227;50.942;4.016;2023-03-05T15:21:32;8.70;99.90
52273;DHT22;38227;50.942;4.016;2023-03-05T15:24:00;8.60;99.90
52273;DHT22;38227;50.942;4.016;2023-03-05T15:26:28;8.60;99.90
52273;DHT22;38227;50.942;4.016;2023-03-05T15:29:00;8.70;99.90
52273;DHT22;38227;50.942;4.016;2023-03-05T15:31:28;8.50;99.90
52273;DHT22;38227;50.942;4.016;2023-03-05T15:34:04;8.30;99.90
52273;DHT22;38227;50.942;4.016;2023-03-05T15:36:42;8.00;99.90
52273;DHT22;38227;50.942;4.016;2023-03-05T15:39:10;7.80;99.90
52273;DHT22;38227;50.942;4.016;2023-03-05T15:41:48;7.60;99.90
52273;DHT22;38227;50.942;4.016;2023-03-05T15:44:17;7.70;99.90
52273;DHT22;38227;50.942;4.016;2023-03-05T15:46:55;7.60;99.90
52273;DHT22;38227;50.942;4.016;2023-03-05T15:49:23;7.80;99.90
52273;DHT22;38227;50.942;4.016;2023-03-05T15:51:55;7.80;99.90
52273;DHT22;38227;50.942;4.016;2023-03-05T15:54:24;7.80;99.90
52273;DHT22;38227;50.942;4.016;2023-03-05T15:56:56;7.80;99.90
52273;DHT22;38227;50.942;4.016;2023-03-05T15:59:24;8.00;99.90
52273;DHT22;38227;50.942;4.016;2023-03-05T16:01:55;8.00;99.90
52273;DHT22;38227;50.942;4.016;2023-03-05T16:04:23;8.00;99.90
52273;DHT22;38227;50.942;4.016;2023-03-05T16:06:51;8.00;99.90
52273;DHT22;38227;50.942;4.016;2023-03-05T16:09:20;7.90;99.90
52273;DHT22;38227;50.942;4.016;2023-03-05T16:11:52;7.80;99.90
52273;DHT22;38227;50.942;4.016;2023-03-05T16:14:25;7.80;99.90
52273;DHT22;38227;50.942;4.016;2023-03-05T16:16:57;7.70;99.90
52273;DHT22;38227;50.942;4.016;2023-03-05T16:19:29;7.80;99.90
52273;DHT22;38227;50.942;4.016;2023-03-05T16:22:02;7.80;99.90
52273;DHT22;38227;50.942;4.016;2023-03-05T16:24:31;7.80;99.90
52273;DHT22;38227;50.942;4.016;2023-03-05T16:27:03;7.90;99.90
52273;DHT22;38227;50.942;4.016;2023-03-05T16:29:31;7.90;99.90
52273;DHT22;38227;50.942;4.016;2023-03-05T16:32:02;8.00;99.90
52273;DHT22;38227;50.942;4.016;2023-03-05T16:34:43;7.90;99.90
52273;DHT22;38227;50.942;4.016;2023-03-05T16:37:18;8.00;99.90
52273;DHT22;38227;50.942;4.016;2023-03-05T16:39:52;8.00;99.90
52273;DHT22;38227;50.942;4.016;2023-03-05T16:42:20;7.90;99.90
52273;DHT22;38227;50.942;4.016;2023-03-05T16:44:52;7.90;99.90
52273;DHT22;38227;50.942;4.016;2023-03-05T16:47:21;7.80;99.90
52273;DHT22;38227;50.942;4.016;2023-03-05T16:49:59;7.90;99.90
52273;DHT22;38227;50.942;4.016;2023-03-05T16:52:28;7.80;99.90
52273;DHT22;38227;50.942;4.016;2023-03-05T16:54:57;7.90;99.90
52273;DHT22;38227;50.942;4.016;2023-03-05T16:57:29;7.90;99.90
52273;DHT22;38227;50.942;4.016;2023-03-05T17:00:07;7.90;99.90
52273;DHT22;38227;50.942;4.016;2023-03-05T17:02:40;7.80;99.90
52273;DHT22;38227;50.942;4.016;2023-03-05T17:05:10;7.90;99.90
52273;DHT22;38227;50.942;4.016;2023-03-05T17:07:42;7.80;99.90
52273;DHT22;38227;50.942;4.016;2023-03-05T17:10:13;7.70;99.90
52273;DHT22;38227;50.942;4.016;2023-03-05T17:12:47;7.70;99.90
52273;DHT22;38227;50.942;4.016;2023-03-05T17:15:17;7.70;99.90
52273;DHT22;38227;50.942;4.016;2023-03-05T17:17:49;7.70;99.90
52273;DHT22;38227;50.942;4.016;2023-03-05T17:20:18;7.70;99.90